createdAt,value
2023-03-23T16:02:25.936Z,8.95
2023-03-23T16:07:29.032Z,8.85
2023-03-23T16:12:32.005Z,8.18
2023-03-23T16:17:35.616Z,10.23
2023-03-23T16:27:42.417Z,10.93
2023-03-23T16:32:47.263Z,10.00
2023-03-23T16:38:08.100Z,8.65
2023-03-23T16:43:30.986Z,7.90
2023-03-23T16:48:52.574Z,6.60
2023-03-23T16:53:56.344Z,7.28
2023-03-23T16:58:59.320Z,7.05
2023-03-23T17:04:02.196Z,6.85
2023-03-23T17:09:05.203Z,6.32
2023-03-23T17:14:08.179Z,6.13
2023-03-23T17:19:11.370Z,6.63
2023-03-23T17:24:14.653Z,6.82
2023-03-23T17:29:17.723Z,6.60
2023-03-23T17:34:21.426Z,6.65
2023-03-23T17:39:24.737Z,6.47
2023-03-23T17:44:28.648Z,5.90
2023-03-23T17:49:32.071Z,6.18
2023-03-23T17:54:35.373Z,6.65
2023-03-23T17:59:38.458Z,6.30
2023-03-23T18:04:43.061Z,6.45
2023-03-23T18:10:11.997Z,6.38
2023-03-23T18:15:15.372Z,6.18
2023-03-23T18:20:18.551Z,6.15
2023-03-23T18:25:21.544Z,6.00
2023-03-23T18:30:27.042Z,5.85
2023-03-23T18:35:30.524Z,5.05
2023-03-23T18:40:33.706Z,5.10
2023-03-23T18:45:38.077Z,5.13
2023-03-23T18:50:41.509Z,5.80
2023-03-23T18:55:45.714Z,5.35
2023-03-23T19:00:50.085Z,5.10
2023-03-23T19:05:53.064Z,5.22
2023-03-23T19:11:02.292Z,5.45
2023-03-23T19:16:05.421Z,6.30
2023-03-23T19:21:14.636Z,5.80
2023-03-23T19:26:24.432Z,4.60
2023-03-23T19:31:29.311Z,4.95
2023-03-23T19:36:32.874Z,5.13
2023-03-23T19:41:37.053Z,6.13
2023-03-23T19:46:40.032Z,6.03
2023-03-23T19:51:43.054Z,5.97
2023-03-23T19:56:47.175Z,6.05
2023-03-23T20:01:50.299Z,5.30
2023-03-23T20:06:56.825Z,6.38
2023-03-23T20:12:01.213Z,6.38
2023-03-23T20:17:05.615Z,6.38
2023-03-23T20:22:09.179Z,6.45
2023-03-23T20:27:11.974Z,5.25
2023-03-23T20:32:14.869Z,5.32
2023-03-23T20:37:20.650Z,5.85
2023-03-23T20:42:23.578Z,6.63
2023-03-23T20:47:28.349Z,5.40
2023-03-23T20:52:31.984Z,6.00
2023-03-23T20:57:38.513Z,5.45
2023-03-23T21:02:59.711Z,6.15
2023-03-23T21:08:02.599Z,5.75
2023-03-23T21:13:06.823Z,5.43
2023-03-23T21:18:11.084Z,4.40
2023-03-23T21:23:15.045Z,6.38
2023-03-23T21:33:23.468Z,5.88
2023-03-23T21:43:31.774Z,5.00
2023-03-23T21:48:36.036Z,4.68
2023-03-23T21:53:39.557Z,6.18
2023-03-23T21:58:43.264Z,6.40
2023-03-23T22:03:46.148Z,6.65
2023-03-23T22:08:49.593Z,6.53
2023-03-23T22:13:54.060Z,6.75
2023-03-23T22:19:00.247Z,4.90
2023-03-23T22:24:04.057Z,6.88
2023-03-23T22:29:07.557Z,6.47
2023-03-23T22:34:11.947Z,6.38
2023-03-23T22:39:14.782Z,6.15
2023-03-23T22:44:20.849Z,6.13
2023-03-23T22:49:23.753Z,7.03
2023-03-23T22:54:26.676Z,6.53
2023-03-23T22:59:29.996Z,6.13
2023-03-23T23:04:33.734Z,5.70
2023-03-23T23:09:36.484Z,6.70
2023-03-23T23:14:40.079Z,6.28
2023-03-23T23:19:43.206Z,6.18
2023-03-23T23:24:46.658Z,6.63
2023-03-23T23:29:49.639Z,7.38
2023-03-23T23:34:53.071Z,6.70
2023-03-23T23:39:55.933Z,7.28
2023-03-23T23:44:59.034Z,7.25
2023-03-23T23:50:01.961Z,5.30
